Time;durP1;ratioP1;P1;durP2;ratioP2;P2;SDS_P1;SDS_P2;PMS_P1;PMS_P2;Temp;Humidity;BMP_temperature;BMP_pressure;BME280_temperature;BME280_humidity;BME280_pressure;Samples;Min_cycle;Max_cycle;Signal;HPM_P1;HPM_P2
2023/10/28 00:02:25;;;;;;;0.55;0.50;;;10.70;1.00;;;;;;7394010;19;20418;-72
2023/10/28 00:04:55;;;;;;;0.68;0.30;;;10.70;1.00;;;;;;7395759;19;20071;-71
2023/10/28 00:07:25;;;;;;;1.63;0.70;;;10.70;1.00;;;;;;7395876;19;20027;-71
2023/10/28 00:09:57;;;;;;;0.98;0.40;;;10.70;1.00;;;;;;7394823;19;20029;-70
2023/10/28 00:12:28;;;;;;;0.57;0.35;;;10.70;1.00;;;;;;7393323;19;20367;-71
2023/10/28 00:14:58;;;;;;;1.77;0.50;;;10.70;1.00;;;;;;7388703;19;20014;-71
2023/10/28 00:17:28;;;;;;;4.20;0.40;;;10.70;1.00;;;;;;7377330;19;20037;-70
2023/10/28 00:19:58;;;;;;;0.50;0.40;;;10.80;1.00;;;;;;7375688;19;20010;-72
2023/10/28 00:22:27;;;;;;;1.27;0.30;;;10.80;1.00;;;;;;7374564;19;20014;-72
2023/10/28 00:25:00;;;;;;;1.40;0.40;;;10.70;1.00;;;;;;7374555;19;20353;-71
2023/10/28 00:27:32;;;;;;;1.25;0.40;;;10.80;1.00;;;;;;7377336;19;20030;-71
2023/10/28 00:30:02;;;;;;;1.55;0.30;;;10.80;1.00;;;;;;7372875;19;20495;-72
2023/10/28 00:32:33;;;;;;;0.43;0.22;;;10.70;1.00;;;;;;7378489;19;20006;-71
2023/10/28 00:35:03;;;;;;;1.20;0.50;;;10.70;1.00;;;;;;7376747;19;20014;-72
2023/10/28 00:37:33;;;;;;;0.90;0.55;;;10.70;1.00;;;;;;7375611;19;20014;-72
2023/10/28 00:40:06;;;;;;;0.90;0.40;;;10.70;1.00;;;;;;7375757;19;20007;-72
2023/10/28 00:42:37;;;;;;;0.63;0.30;;;10.70;1.00;;;;;;7376020;19;20075;-72
2023/10/28 00:45:11;;;;;;;1.05;0.52;;;10.60;1.00;;;;;;7375792;19;20082;-72
2023/10/28 00:47:41;;;;;;;1.10;0.70;;;10.60;1.00;;;;;;7374366;19;20078;-72
2023/10/28 00:50:14;;;;;;;1.40;0.60;;;10.60;1.00;;;;;;7375407;19;20636;-72
2023/10/28 00:52:50;;;;;;;0.70;0.50;;;10.60;1.00;;;;;;7374449;19;20023;-72
2023/10/28 00:55:23;;;;;;;0.73;0.40;;;10.60;1.00;;;;;;7374087;19;20082;-74
2023/10/28 00:57:54;;;;;;;2.70;0.70;;;10.60;1.00;;;;;;7374146;19;20376;-73
2023/10/28 01:00:24;;;;;;;0.60;0.40;;;10.60;1.00;;;;;;7376080;19;20034;-72
2023/10/28 01:02:54;;;;;;;1.10;0.57;;;10.60;1.00;;;;;;7375215;19;20025;-72
2023/10/28 01:05:24;;;;;;;2.42;0.32;;;10.60;1.00;;;;;;7374457;19;20015;-72
2023/10/28 01:07:54;;;;;;;0.90;0.45;;;10.50;1.00;;;;;;7372930;19;20017;-72
2023/10/28 01:10:33;;;;;;;0.45;0.30;;;10.50;1.00;;;;;;7375064;19;20077;-72
2023/10/28 01:13:04;;;;;;;0.82;0.45;;;10.50;1.00;;;;;;7374455;19;20018;-72
2023/10/28 01:15:34;;;;;;;0.73;0.32;;;10.50;1.00;;;;;;7375949;19;20010;-72
2023/10/28 01:18:05;;;;;;;1.02;0.50;;;10.50;1.00;;;;;;7375945;19;20018;-71
2023/10/28 01:20:36;;;;;;;0.77;0.40;;;10.50;1.00;;;;;;7375220;19;20062;-72
2023/10/28 01:23:08;;;;;;;0.70;0.40;;;10.50;1.00;;;;;;7374073;19;20710;-71
2023/10/28 01:25:38;;;;;;;2.53;0.68;;;10.50;1.00;;;;;;7374445;19;20014;-72
2023/10/28 01:28:11;;;;;;;1.08;0.52;;;10.40;2.70;;;;;;7374757;19;20027;-71
2023/10/28 01:30:41;;;;;;;0.88;0.40;;;10.40;4.30;;;;;;7374645;19;20525;-71
2023/10/28 01:33:11;;;;;;;0.80;0.50;;;10.40;1.60;;;;;;7374013;19;20017;-71
2023/10/28 01:35:42;;;;;;;2.25;0.60;;;10.40;2.20;;;;;;7372900;19;20465;-71
2023/10/28 01:38:14;;;;;;;1.17;0.80;;;10.40;4.00;;;;;;7374966;19;20022;-71
2023/10/28 01:40:47;;;;;;;1.75;0.50;;;10.40;1.10;;;;;;7375155;19;20364;-73
2023/10/28 01:43:18;;;;;;;2.05;0.60;;;10.40;1.50;;;;;;7373848;19;20018;-71
2023/10/28 01:45:48;;;;;;;1.38;0.68;;;10.40;1.40;;;;;;7375793;19;20011;-71
2023/10/28 01:48:18;;;;;;;2.53;0.50;;;10.30;3.30;;;;;;7373811;19;20010;-71
2023/10/28 01:50:48;;;;;;;0.95;0.50;;;10.30;4.80;;;;;;7374799;19;20007;-71
2023/10/28 01:53:22;;;;;;;2.13;0.55;;;10.30;5.30;;;;;;7370817;19;20484;-73
2023/10/28 01:55:52;;;;;;;0.97;0.50;;;10.30;6.60;;;;;;7371466;19;20488;-73
2023/10/28 01:58:22;;;;;;;2.85;0.52;;;10.30;6.20;;;;;;7373279;19;20139;-72
2023/10/28 02:00:52;;;;;;;1.05;0.40;;;10.30;8.20;;;;;;7373975;19;20081;-73
2023/10/28 02:03:22;;;;;;;1.05;0.40;;;10.30;6.80;;;;;;7372076;19;20066;-73
2023/10/28 02:05:52;;;;;;;0.90;0.40;;;10.40;7.20;;;;;;7373746;19;20006;-74
2023/10/28 02:08:24;;;;;;;2.30;0.60;;;10.30;6.80;;;;;;7373553;19;20093;-73
2023/10/28 02:10:54;;;;;;;1.30;0.28;;;10.30;9.00;;;;;;7372695;19;20435;-72
2023/10/28 02:13:25;;;;;;;1.48;0.75;;;10.40;9.50;;;;;;7371298;19;20014;-72
2023/10/28 02:15:55;;;;;;;1.67;0.60;;;10.40;9.70;;;;;;7373518;19;20382;-72
2023/10/28 02:18:25;;;;;;;4.90;0.80;;;10.40;11.80;;;;;;7372362;19;20020;-72
2023/10/28 02:20:55;;;;;;;1.60;0.43;;;10.40;11.00;;;;;;7372374;19;20024;-72
2023/10/28 02:23:27;;;;;;;5.38;0.60;;;10.30;8.10;;;;;;7371866;19;20069;-72
2023/10/28 02:25:57;;;;;;;1.25;0.50;;;10.20;9.80;;;;;;7374362;19;20109;-72
2023/10/28 02:28:27;;;;;;;0.82;0.50;;;10.20;13.60;;;;;;7372943;19;20010;-71
2023/10/28 02:30:57;;;;;;;0.52;0.40;;;10.20;11.50;;;;;;7372008;19;20494;-73
2023/10/28 02:33:27;;;;;;;1.70;0.40;;;10.10;13.20;;;;;;7368404;19;20033;-72
2023/10/28 02:35:57;;;;;;;1.10;0.63;;;10.10;12.30;;;;;;7372901;19;20039;-72
2023/10/28 02:38:30;;;;;;;2.38;0.50;;;10.20;9.00;;;;;;7373119;19;20629;-71
2023/10/28 02:41:00;;;;;;;2.35;0.68;;;10.10;6.60;;;;;;7372912;19;20014;-72
2023/10/28 02:43:30;;;;;;;1.55;0.57;;;10.10;8.80;;;;;;7371944;19;20383;-72
2023/10/28 02:46:00;;;;;;;1.50;0.70;;;10.10;10.50;;;;;;7371986;19;20017;-72
2023/10/28 02:48:30;;;;;;;2.47;0.90;;;10.00;13.00;;;;;;7380087;19;20035;-72
2023/10/28 02:51:05;;;;;;;2.13;0.70;;;10.00;12.70;;;;;;7379748;19;20018;-71
2023/10/28 02:53:37;;;;;;;1.50;0.70;;;9.90;15.30;;;;;;7375913;19;20040;-72
2023/10/28 02:56:08;;;;;;;2.95;0.73;;;9.90;15.20;;;;;;7380600;19;20021;-72
2023/10/28 02:58:39;;;;;;;3.22;0.80;;;9.80;14.90;;;;;;7403201;19;20018;-72
2023/10/28 03:01:10;;;;;;;3.30;0.93;;;9.80;17.20;;;;;;7380448;19;21067;-71
2023/10/28 03:03:42;;;;;;;1.60;0.60;;;9.80;16.80;;;;;;7384514;19;20548;-72
2023/10/28 03:06:12;;;;;;;2.00;0.60;;;9.80;16.30;;;;;;7381681;19;20033;-72
2023/10/28 03:08:45;;;;;;;1.60;0.80;;;9.80;14.80;;;;;;7381078;19;20068;-72
2023/10/28 03:11:15;;;;;;;3.47;0.90;;;9.80;14.60;;;;;;7380677;19;20592;-72
2023/10/28 03:13:46;;;;;;;3.65;0.70;;;9.80;12.90;;;;;;7376490;19;20014;-71
2023/10/28 03:16:16;;;;;;;1.92;0.80;;;9.80;11.00;;;;;;7381687;19;20030;-72
2023/10/28 03:18:45;;;;;;;1.35;0.80;;;9.90;7.80;;;;;;7380092;19;20018;-72
2023/10/28 03:21:15;;;;;;;1.63;0.70;;;9.90;7.20;;;;;;7381314;19;20009;-72
2023/10/28 03:23:48;;;;;;;3.75;1.00;;;9.90;6.70;;;;;;7379168;19;20086;-71
2023/10/28 03:26:18;;;;;;;2.03;0.52;;;9.90;5.50;;;;;;7378925;19;20017;-72
2023/10/28 03:28:49;;;;;;;4.95;0.90;;;10.00;1.00;;;;;;7374816;19;20006;-72
2023/10/28 03:31:19;;;;;;;4.63;1.67;;;9.90;2.70;;;;;;7378195;19;20015;-72
2023/10/28 03:33:51;;;;;;;2.28;0.90;;;10.00;1.00;;;;;;7375132;19;20010;-72
2023/10/28 03:36:21;;;;;;;2.58;1.40;;;10.00;1.00;;;;;;7378620;19;20048;-73
2023/10/28 03:38:55;;;;;;;2.35;1.20;;;10.10;1.00;;;;;;7378184;19;20006;-72
2023/10/28 03:41:25;;;;;;;3.35;1.20;;;10.20;1.00;;;;;;7376514;19;20007;-72
2023/10/28 03:43:55;;;;;;;3.50;1.02;;;10.20;1.00;;;;;;7376566;19;20014;-72
2023/10/28 03:46:26;;;;;;;2.55;1.17;;;10.20;1.00;;;;;;7378188;19;20014;-72
2023/10/28 03:48:56;;;;;;;5.80;0.93;;;10.20;1.00;;;;;;7377194;19;20013;-72
2023/10/28 03:51:26;;;;;;;3.70;1.00;;;10.30;1.00;;;;;;7377606;19;20010;-72
2023/10/28 03:53:59;;;;;;;4.40;1.27;;;10.30;1.00;;;;;;7376981;19;20010;-72
2023/10/28 03:56:29;;;;;;;4.25;1.10;;;10.30;1.00;;;;;;7377203;19;20011;-72
2023/10/28 03:59:00;;;;;;;2.65;1.10;;;10.30;1.00;;;;;;7376963;19;20021;-70
2023/10/28 04:01:30;;;;;;;4.40;1.40;;;10.30;1.00;;;;;;7378576;19;20031;-71
2023/10/28 04:04:00;;;;;;;5.00;1.38;;;10.40;1.00;;;;;;7377590;19;20018;-71
2023/10/28 04:06:29;;;;;;;3.85;1.00;;;10.50;1.00;;;;;;7376660;19;20046;-71
2023/10/28 04:09:03;;;;;;;4.90;1.05;;;10.50;1.00;;;;;;7376002;19;20006;-71
2023/10/28 04:11:33;;;;;;;5.10;1.30;;;10.50;1.00;;;;;;7377470;19;20015;-72
2023/10/28 04:14:03;;;;;;;6.93;1.30;;;10.50;1.00;;;;;;7376051;19;23473;-72
2023/10/28 04:16:33;;;;;;;5.63;1.10;;;10.60;1.00;;;;;;7376486;19;20672;-71
2023/10/28 04:19:03;;;;;;;6.32;1.08;;;10.60;1.00;;;;;;7375702;19;20007;-72
2023/10/28 04:21:33;;;;;;;3.05;1.15;;;10.60;1.00;;;;;;7375814;19;20744;-71
2023/10/28 04:24:07;;;;;;;6.38;1.33;;;10.60;1.00;;;;;;7375126;19;20010;-72
2023/10/28 04:26:37;;;;;;;5.35;1.20;;;10.70;1.00;;;;;;7375297;19;20014;-72
2023/10/28 04:29:07;;;;;;;2.75;0.90;;;10.60;1.00;;;;;;7377731;19;20020;-72
2023/10/28 04:31:37;;;;;;;5.68;1.30;;;10.60;1.00;;;;;;7378060;19;20010;-71
2023/10/28 04:34:09;;;;;;;3.33;1.00;;;10.60;1.00;;;;;;7376681;19;20014;-71
2023/10/28 04:36:39;;;;;;;2.92;1.20;;;10.60;1.00;;;;;;7377838;19;20018;-71
2023/10/28 04:39:11;;;;;;;5.82;1.30;;;10.50;1.00;;;;;;7375422;19;20014;-71
2023/10/28 04:41:41;;;;;;;5.50;1.50;;;10.50;1.00;;;;;;7375971;19;20018;-71
2023/10/28 04:44:13;;;;;;;3.75;1.48;;;10.50;1.00;;;;;;7374639;19;20021;-71
2023/10/28 04:46:43;;;;;;;3.95;1.17;;;10.40;1.00;;;;;;7376691;19;20047;-71
2023/10/28 04:49:13;;;;;;;16.20;1.58;;;10.40;1.00;;;;;;7373159;19;20018;-71
2023/10/28 04:51:44;;;;;;;4.43;1.10;;;10.40;1.00;;;;;;7374581;19;20445;-71
2023/10/28 04:54:16;;;;;;;3.55;1.10;;;10.30;1.00;;;;;;7374264;19;22513;-72
2023/10/28 04:56:46;;;;;;;1.73;0.90;;;10.30;1.00;;;;;;7375492;19;20021;-71
2023/10/28 04:59:16;;;;;;;3.88;0.98;;;10.30;1.00;;;;;;7373592;19;20057;-72
2023/10/28 05:01:46;;;;;;;2.40;0.95;;;10.30;1.00;;;;;;7374798;19;20007;-72
2023/10/28 05:04:16;;;;;;;4.22;1.20;;;10.30;1.00;;;;;;7373417;19;20010;-71
2023/10/28 05:06:46;;;;;;;3.42;1.13;;;10.20;1.00;;;;;;7375110;19;20042;-72
2023/10/28 05:09:20;;;;;;;2.60;1.02;;;10.20;1.00;;;;;;7373195;19;20014;-71
2023/10/28 05:11:54;;;;;;;5.40;1.55;;;10.20;1.00;;;;;;7376166;19;20532;-71
2023/10/28 05:14:24;;;;;;;;;;;10.20;1.00;;;;;;7369506;19;20044;-71
2023/10/28 05:16:55;;;;;;;4.70;1.05;;;10.20;1.00;;;;;;7375071;19;19915;-73
2023/10/28 05:19:25;;;;;;;4.53;0.93;;;10.30;1.00;;;;;;7373995;19;20051;-73
2023/10/28 05:21:56;;;;;;;3.45;1.02;;;10.30;1.00;;;;;;7374750;19;20368;-73
2023/10/28 05:24:29;;;;;;;2.72;0.93;;;10.20;1.00;;;;;;7373899;19;20458;-72
2023/10/28 05:27:00;;;;;;;3.05;0.88;;;10.20;1.00;;;;;;7374779;19;20074;-71
2023/10/28 05:29:29;;;;;;;2.70;0.70;;;10.20;1.00;;;;;;7374899;19;20014;-72
2023/10/28 05:31:59;;;;;;;2.47;0.90;;;10.20;1.00;;;;;;7374855;19;20041;-71
2023/10/28 05:34:29;;;;;;;4.13;1.65;;;10.20;1.00;;;;;;7373762;19;20444;-73
2023/10/28 05:36:59;;;;;;;3.63;1.30;;;10.20;1.00;;;;;;7374624;19;20044;-72
2023/10/28 05:39:32;;;;;;;2.22;0.90;;;10.20;1.00;;;;;;7374829;19;20015;-71
2023/10/28 05:42:02;;;;;;;3.50;0.82;;;10.10;1.00;;;;;;7374944;19;20078;-71
2023/10/28 05:44:32;;;;;;;2.13;0.90;;;10.20;1.00;;;;;;7374597;19;20014;-71
2023/10/28 05:47:02;;;;;;;1.88;0.80;;;10.10;1.00;;;;;;7374468;19;20086;-71
2023/10/28 05:49:33;;;;;;;1.83;0.98;;;10.10;1.00;;;;;;7374879;19;20080;-71
2023/10/28 05:52:03;;;;;;;3.92;1.70;;;10.10;1.00;;;;;;7374374;19;20007;-70
2023/10/28 05:54:36;;;;;;;4.43;2.25;;;10.00;1.00;;;;;;7374370;19;20082;-70
2023/10/28 05:57:06;;;;;;;5.63;1.95;;;10.00;1.00;;;;;;7373617;19;20482;-71
2023/10/28 05:59:36;;;;;;;4.47;0.98;;;10.00;1.00;;;;;;7373852;19;20018;-71
2023/10/28 06:02:07;;;;;;;2.17;0.88;;;10.00;1.00;;;;;;7374169;19;20019;-70
2023/10/28 06:04:38;;;;;;;6.43;1.40;;;10.10;1.00;;;;;;7373593;19;20021;-71
2023/10/28 06:07:09;;;;;;;1.35;0.93;;;10.20;1.00;;;;;;7373214;19;20528;-71
2023/10/28 06:09:42;;;;;;;3.17;1.05;;;10.20;1.00;;;;;;7373263;19;20453;-70
2023/10/28 06:12:13;;;;;;;3.85;1.05;;;10.30;1.00;;;;;;7372059;19;20467;-70
2023/10/28 06:14:44;;;;;;;3.97;1.27;;;10.40;1.00;;;;;;7372606;19;20767;-71
2023/10/28 06:17:14;;;;;;;3.65;1.20;;;10.40;1.00;;;;;;7371987;19;20017;-70
2023/10/28 06:19:45;;;;;;;2.47;0.82;;;10.50;1.00;;;;;;7371663;19;20010;-71
2023/10/28 06:22:15;;;;;;;2.53;1.08;;;10.50;1.00;;;;;;7376360;19;20450;-71
2023/10/28 06:24:49;;;;;;;5.65;1.20;;;10.60;1.00;;;;;;7379942;19;20026;-71
2023/10/28 06:27:19;;;;;;;4.63;1.30;;;10.60;1.00;;;;;;7381462;19;20015;-71
2023/10/28 06:29:50;;;;;;;4.90;1.20;;;10.60;1.00;;;;;;7381554;19;20018;-71
2023/10/28 06:32:20;;;;;;;4.65;1.40;;;10.60;1.00;;;;;;7401811;19;20021;-71
2023/10/28 06:34:50;;;;;;;3.33;1.00;;;10.70;1.00;;;;;;7380638;19;20010;-71
2023/10/28 06:37:20;;;;;;;3.97;1.00;;;10.70;1.00;;;;;;7379859;19;20412;-71
2023/10/28 06:39:52;;;;;;;2.63;0.98;;;10.70;1.00;;;;;;7379540;19;20455;-71
2023/10/28 06:42:23;;;;;;;4.07;1.05;;;10.80;1.00;;;;;;7380021;19;20014;-69
2023/10/28 06:44:53;;;;;;;3.03;1.13;;;10.80;1.00;;;;;;7373903;19;20078;-71
2023/10/28 06:47:23;;;;;;;4.60;1.20;;;10.80;1.00;;;;;;7379443;19;20015;-71
2023/10/28 06:49:53;;;;;;;6.93;1.50;;;10.80;1.00;;;;;;7381239;19;20073;-73
2023/10/28 06:52:25;;;;;;;2.45;1.00;;;10.90;1.00;;;;;;7377735;19;20036;-71
2023/10/28 06:55:00;;;;;;;2.95;0.98;;;10.90;1.00;;;;;;7376626;19;20007;-72
2023/10/28 06:57:30;;;;;;;5.03;0.98;;;10.90;1.00;;;;;;7381358;19;20010;-72
2023/10/28 07:00:00;;;;;;;3.00;1.40;;;11.00;1.00;;;;;;7380927;19;20039;-71
2023/10/28 07:02:32;;;;;;;3.08;0.90;;;11.00;1.00;;;;;;7381682;19;20045;-72
2023/10/28 07:05:03;;;;;;;3.35;1.10;;;11.00;1.00;;;;;;7381874;19;20010;-72
2023/10/28 07:07:34;;;;;;;5.32;1.25;;;11.10;1.00;;;;;;7384414;19;20042;-72
2023/10/28 07:10:07;;;;;;;4.97;0.80;;;11.10;1.00;;;;;;7382474;19;20016;-72
2023/10/28 07:12:37;;;;;;;5.50;1.20;;;11.10;1.00;;;;;;7382029;19;20024;-72
2023/10/28 07:15:10;;;;;;;3.97;1.10;;;11.30;1.00;;;;;;7383161;19;20359;-72
2023/10/28 07:17:40;;;;;;;5.32;1.13;;;11.30;1.00;;;;;;7382521;19;20385;-71
2023/10/28 07:20:11;;;;;;;2.17;0.90;;;11.40;1.00;;;;;;7382735;19;20014;-71
2023/10/28 07:22:41;;;;;;;3.42;1.27;;;11.40;1.00;;;;;;7382305;19;20014;-71
2023/10/28 07:25:14;;;;;;;2.70;1.10;;;11.50;1.00;;;;;;7379460;19;20040;-71
2023/10/28 07:27:44;;;;;;;2.33;1.20;;;11.50;1.00;;;;;;7381250;19;20011;-71
2023/10/28 07:30:15;;;;;;;5.97;1.30;;;11.50;1.00;;;;;;7379928;19;20550;-72
2023/10/28 07:32:45;;;;;;;3.05;0.90;;;11.60;1.00;;;;;;7377198;19;22275;-71
2023/10/28 07:35:16;;;;;;;2.60;1.05;;;11.70;1.00;;;;;;7379647;19;20022;-72
2023/10/28 07:37:46;;;;;;;3.00;0.85;;;11.90;1.00;;;;;;7378329;19;20030;-72
2023/10/28 07:40:19;;;;;;;3.35;1.30;;;11.90;1.00;;;;;;7380213;19;20487;-72
2023/10/28 07:42:49;;;;;;;3.13;0.90;;;12.00;1.00;;;;;;7379671;19;20745;-72
2023/10/28 07:45:19;;;;;;;3.83;1.50;;;12.00;1.00;;;;;;7378183;19;20093;-71
2023/10/28 07:47:49;;;;;;;3.70;1.10;;;12.00;1.00;;;;;;7379595;19;20014;-71
2023/10/28 07:50:19;;;;;;;4.55;1.20;;;12.10;1.00;;;;;;7380538;19;20026;-71
2023/10/28 07:52:49;;;;;;;2.88;1.10;;;12.10;1.00;;;;;;7380890;19;20018;-71
2023/10/28 07:55:22;;;;;;;4.88;0.90;;;12.20;1.00;;;;;;7380924;19;20422;-72
2023/10/28 07:57:52;;;;;;;2.97;1.20;;;12.40;1.00;;;;;;7381679;19;20031;-72
2023/10/28 08:00:23;;;;;;;3.70;1.30;;;12.40;1.00;;;;;;7380049;19;20018;-72
2023/10/28 08:02:53;;;;;;;4.82;1.70;;;12.50;1.00;;;;;;7382131;19;20040;-72
2023/10/28 08:05:24;;;;;;;4.60;1.40;;;12.50;1.00;;;;;;7381735;19;20029;-71
2023/10/28 08:07:56;;;;;;;2.35;0.82;;;12.70;1.00;;;;;;7369503;19;20018;-72
2023/10/28 08:10:30;;;;;;;3.17;1.15;;;12.90;1.00;;;;;;7377302;19;19998;-71
2023/10/28 08:13:00;;;;;;;2.75;1.10;;;13.10;1.00;;;;;;7376326;19;20367;-71
2023/10/28 08:15:30;;;;;;;1.48;0.77;;;13.30;1.00;;;;;;7378389;19;20010;-71
2023/10/28 08:18:00;;;;;;;2.85;0.98;;;13.20;1.00;;;;;;7378731;19;20014;-71
2023/10/28 08:20:31;;;;;;;1.30;0.80;;;13.20;1.00;;;;;;7379382;19;20039;-71
2023/10/28 08:23:01;;;;;;;3.85;1.05;;;13.30;1.00;;;;;;7376445;19;20013;-72
2023/10/28 08:25:34;;;;;;;3.42;0.80;;;13.30;1.00;;;;;;7377287;19;20348;-72
2023/10/28 08:28:04;;;;;;;4.50;1.10;;;13.40;1.00;;;;;;7378630;19;20010;-72
2023/10/28 08:30:35;;;;;;;2.45;1.17;;;13.50;1.00;;;;;;7377942;19;20017;-72
2023/10/28 08:33:05;;;;;;;3.70;1.00;;;13.70;1.00;;;;;;7377576;19;20007;-72
2023/10/28 08:35:36;;;;;;;3.10;1.10;;;13.80;1.00;;;;;;7377824;19;20010;-71
2023/10/28 08:38:07;;;;;;;5.55;1.58;;;13.90;1.00;;;;;;7378558;19;20036;-71
2023/10/28 08:40:47;;;;;;;2.33;1.05;;;13.80;1.00;;;;;;7378349;19;20006;-71
2023/10/28 08:43:17;;;;;;;4.90;1.10;;;13.70;1.00;;;;;;7377557;19;20082;-70
2023/10/28 08:45:47;;;;;;;4.47;1.45;;;13.60;1.00;;;;;;7379078;19;20016;-71
2023/10/28 08:48:20;;;;;;;3.03;1.02;;;13.50;1.00;;;;;;7378388;19;20858;-71
2023/10/28 08:50:55;;;;;;;3.23;0.83;;;13.50;1.00;;;;;;7380007;19;20012;-72
2023/10/28 08:53:25;;;;;;;1.77;0.85;;;13.60;1.00;;;;;;7379251;19;20007;-71
2023/10/28 08:56:01;;;;;;;3.90;1.08;;;13.70;1.00;;;;;;7374339;19;20565;-71
2023/10/28 08:58:31;;;;;;;3.50;1.27;;;13.70;1.00;;;;;;7372753;19;20007;-71
2023/10/28 09:01:01;;;;;;;3.45;1.33;;;13.80;1.00;;;;;;7378036;19;20003;-72
2023/10/28 09:03:33;;;;;;;4.18;1.25;;;14.10;1.00;;;;;;7377895;19;20017;-71
2023/10/28 09:06:05;;;;;;;3.05;1.13;;;14.20;1.00;;;;;;7378407;19;20022;-71
2023/10/28 09:08:35;;;;;;;3.42;0.90;;;14.40;1.00;;;;;;7379430;19;20014;-71
2023/10/28 09:11:08;;;;;;;6.30;1.02;;;14.30;1.00;;;;;;7373466;19;20380;-70
2023/10/28 09:13:38;;;;;;;5.75;1.58;;;14.40;1.00;;;;;;7375923;19;20014;-72
2023/10/28 09:16:09;;;;;;;2.67;1.30;;;14.40;1.00;;;;;;7378624;19;20014;-72
2023/10/28 09:18:40;;;;;;;2.75;0.90;;;14.50;1.00;;;;;;7376316;19;20017;-73
2023/10/28 09:21:12;;;;;;;2.00;0.70;;;14.40;1.00;;;;;;7370515;19;20540;-71
2023/10/28 09:23:44;;;;;;;5.85;1.20;;;14.30;1.00;;;;;;7376792;19;20397;-72
2023/10/28 09:26:18;;;;;;;4.00;1.10;;;14.20;1.00;;;;;;7376987;19;20014;-72
2023/10/28 09:28:48;;;;;;;3.22;1.10;;;14.10;1.00;;;;;;7378804;19;20014;-71
2023/10/28 09:31:25;;;;;;;3.75;1.33;;;14.10;1.00;;;;;;7375651;19;20006;-71
2023/10/28 09:33:57;;;;;;;4.28;1.10;;;14.20;1.00;;;;;;7373803;19;20042;-71
2023/10/28 09:36:27;;;;;;;2.97;1.00;;;14.30;1.00;;;;;;7375840;19;20010;-72
2023/10/28 09:38:58;;;;;;;2.20;1.00;;;14.50;1.00;;;;;;7374584;19;20016;-71
2023/10/28 09:41:31;;;;;;;3.22;1.30;;;14.60;1.00;;;;;;7378141;19;20011;-72
2023/10/28 09:44:03;;;;;;;3.13;1.00;;;14.70;1.00;;;;;;7373250;19;20040;-71
2023/10/28 09:46:35;;;;;;;4.63;1.15;;;14.60;1.00;;;;;;7375535;19;20014;-71
2023/10/28 09:49:09;;;;;;;2.67;1.00;;;14.70;1.00;;;;;;7377473;19;20010;-71
2023/10/28 09:51:42;;;;;;;;;;;14.70;1.00;;;;;;7377007;19;20007;-72
2023/10/28 09:54:19;;;;;;;2.95;0.75;;;14.90;1.00;;;;;;7376313;19;19918;-71
2023/10/28 09:56:53;;;;;;;2.78;1.05;;;15.00;1.00;;;;;;7374480;19;20007;-72
2023/10/28 09:59:25;;;;;;;8.13;1.42;;;14.80;1.00;;;;;;7376470;19;20007;-72
2023/10/28 10:02:13;;;;;;;3.97;1.10;;;14.70;1.00;;;;;;7375500;19;20010;-72
2023/10/28 10:04:47;;;;;;;5.55;1.30;;;14.80;1.00;;;;;;6866433;19;2005382;-70
2023/10/28 10:07:17;;;;;;;3.28;1.30;;;14.80;1.00;;;;;;7376421;19;20041;-70
2023/10/28 10:09:48;;;;;;;2.10;0.80;;;14.80;1.00;;;;;;7374642;19;20557;-70
2023/10/28 10:12:31;;;;;;;1.90;0.88;;;14.90;1.00;;;;;;7373896;19;20014;-71
2023/10/28 10:15:04;;;;;;;2.40;1.20;;;14.90;1.00;;;;;;7375085;19;20010;-71
2023/10/28 10:17:40;;;;;;;2.25;1.05;;;14.90;1.00;;;;;;7374662;19;20010;-71
2023/10/28 10:20:12;;;;;;;2.40;0.98;;;15.00;1.00;;;;;;7375727;19;20011;-73
2023/10/28 10:22:42;;;;;;;2.67;0.90;;;15.10;1.00;;;;;;7372965;19;20006;-72
2023/10/28 10:25:12;;;;;;;3.83;1.00;;;15.50;1.00;;;;;;7374095;19;20018;-72
2023/10/28 10:27:45;;;;;;;3.08;1.10;;;15.70;1.00;;;;;;7375575;19;20075;-72
2023/10/28 10:30:16;;;;;;;2.67;1.10;;;15.70;1.00;;;;;;7374771;19;20378;-71
2023/10/28 10:32:49;;;;;;;4.05;1.02;;;15.60;1.00;;;;;;7373226;19;20013;-72
2023/10/28 10:35:30;;;;;;;3.42;1.20;;;15.40;1.00;;;;;;7373363;19;20007;-71
2023/10/28 10:38:05;;;;;;;3.90;1.33;;;15.40;1.00;;;;;;7375920;19;20352;-73
2023/10/28 10:40:36;;;;;;;5.43;1.15;;;15.40;1.00;;;;;;7371470;19;20007;-72
2023/10/28 10:43:10;;;;;;;5.53;1.20;;;15.50;1.00;;;;;;7372802;19;20014;-71
2023/10/28 10:45:40;;;;;;;3.55;1.02;;;15.20;1.00;;;;;;7374653;19;20035;-72
2023/10/28 10:48:10;;;;;;;4.57;1.45;;;15.40;1.00;;;;;;7371980;19;20498;-72
2023/10/28 10:50:41;;;;;;;5.35;1.27;;;15.50;1.00;;;;;;7370064;19;20586;-71
2023/10/28 10:53:11;;;;;;;5.03;1.50;;;15.60;1.00;;;;;;7370877;19;20017;-72
2023/10/28 10:55:42;;;;;;;4.32;1.35;;;15.70;1.00;;;;;;7370529;19;20027;-72
2023/10/28 10:58:15;;;;;;;6.22;1.35;;;15.70;1.00;;;;;;7371055;19;20015;-71
2023/10/28 11:00:54;;;;;;;3.70;1.35;;;15.50;1.00;;;;;;7371568;19;20540;-71
2023/10/28 11:03:24;;;;;;;4.05;1.30;;;15.40;1.00;;;;;;7370084;19;20042;-72
2023/10/28 11:05:55;;;;;;;4.05;1.23;;;15.40;1.00;;;;;;7371482;19;20014;-72
2023/10/28 11:08:26;;;;;;;5.20;1.35;;;15.30;1.00;;;;;;7378106;19;20006;-71
2023/10/28 11:10:56;;;;;;;4.82;1.30;;;15.20;1.00;;;;;;7382546;19;20371;-71
2023/10/28 11:13:29;;;;;;;4.65;1.35;;;15.10;1.00;;;;;;7383162;19;20021;-72
2023/10/28 11:16:00;;;;;;;7.20;1.50;;;15.00;1.00;;;;;;7384977;19;20462;-71
2023/10/28 11:18:30;;;;;;;2.83;1.40;;;14.90;1.00;;;;;;7381617;19;20011;-72
2023/10/28 11:21:00;;;;;;;5.47;1.38;;;14.90;1.00;;;;;;7376086;19;20555;-72
2023/10/28 11:23:31;;;;;;;4.60;1.80;;;14.80;1.00;;;;;;7382116;19;20011;-72
2023/10/28 11:26:05;;;;;;;3.40;1.27;;;14.70;1.00;;;;;;7381670;19;20021;-72
2023/10/28 11:28:40;;;;;;;4.20;1.08;;;14.70;1.00;;;;;;7381212;19;20022;-72
2023/10/28 11:31:11;;;;;;;6.18;1.55;;;14.60;1.00;;;;;;7379041;19;20074;-71
2023/10/28 11:33:41;;;;;;;5.72;1.70;;;14.60;1.00;;;;;;7380227;19;20009;-72
2023/10/28 11:36:11;;;;;;;4.88;1.52;;;14.60;1.00;;;;;;7381576;19;20088;-72
2023/10/28 11:38:42;;;;;;;7.70;1.85;;;14.60;1.00;;;;;;7381027;19;20081;-70
2023/10/28 11:41:13;;;;;;;5.70;1.55;;;14.60;1.00;;;;;;7379752;19;20046;-72
2023/10/28 11:43:45;;;;;;;5.15;1.63;;;14.70;1.00;;;;;;7379732;19;20130;-71
2023/10/28 11:46:17;;;;;;;8.63;2.28;;;14.60;1.00;;;;;;7380441;19;20015;-71
2023/10/28 11:48:48;;;;;;;3.35;2.22;;;14.50;1.00;;;;;;7380008;19;20018;-72
2023/10/28 11:51:18;;;;;;;5.97;1.65;;;14.50;1.00;;;;;;7380824;19;20015;-71
2023/10/28 11:53:48;;;;;;;4.28;1.40;;;14.40;1.00;;;;;;7378646;19;20078;-72
2023/10/28 11:56:19;;;;;;;3.95;1.73;;;14.50;1.00;;;;;;7379780;19;20006;-71
2023/10/28 11:58:52;;;;;;;5.63;1.40;;;14.50;1.00;;;;;;7378260;19;20108;-72
2023/10/28 12:01:22;;;;;;;3.63;1.50;;;14.50;1.00;;;;;;7379909;19;20014;-71
2023/10/28 12:03:52;;;;;;;9.57;2.22;;;14.60;1.00;;;;;;7379541;19;20369;-73
2023/10/28 12:06:23;;;;;;;7.13;1.60;;;14.50;1.00;;;;;;7379840;19;20007;-72
2023/10/28 12:09:00;;;;;;;4.78;1.20;;;14.60;1.00;;;;;;7378848;19;20021;-72
2023/10/28 12:11:31;;;;;;;3.03;1.48;;;14.50;1.00;;;;;;7365658;19;20009;-72
2023/10/28 12:14:03;;;;;;;2.58;1.40;;;14.60;1.00;;;;;;7361519;19;20053;-71
2023/10/28 12:16:35;;;;;;;6.18;2.10;;;14.60;1.00;;;;;;7364136;19;21322;-72
2023/10/28 12:19:05;;;;;;;6.82;1.92;;;14.50;1.00;;;;;;7365044;19;20014;-72
2023/10/28 12:21:36;;;;;;;8.73;1.50;;;14.50;1.00;;;;;;7363167;19;20045;-72
2023/10/28 12:24:07;;;;;;;6.00;1.75;;;14.40;1.00;;;;;;7361849;19;20010;-71
2023/10/28 12:26:37;;;;;;;5.88;1.55;;;14.40;1.00;;;;;;7362068;19;20372;-70
2023/10/28 12:29:10;;;;;;;8.10;1.73;;;14.30;1.00;;;;;;7364031;19;20438;-73
2023/10/28 12:31:41;;;;;;;4.90;1.40;;;14.30;1.00;;;;;;7360049;19;20006;-71
2023/10/28 12:34:11;;;;;;;4.90;1.75;;;14.30;1.00;;;;;;7358743;19;20010;-73
2023/10/28 12:36:42;;;;;;;3.40;1.95;;;14.30;1.00;;;;;;7360402;19;20107;-72
2023/10/28 12:39:16;;;;;;;6.60;1.67;;;14.30;1.00;;;;;;7356845;19;20070;-69
2023/10/28 12:41:48;;;;;;;4.68;1.70;;;14.30;1.00;;;;;;7361542;19;20054;-72
2023/10/28 12:44:21;;;;;;;6.82;1.77;;;14.30;1.00;;;;;;7363427;19;20894;-71
2023/10/28 12:46:51;;;;;;;8.65;2.30;;;14.40;1.00;;;;;;7363521;19;20011;-71
2023/10/28 12:49:21;;;;;;;4.57;1.73;;;14.40;1.00;;;;;;7363419;19;20014;-72
2023/10/28 12:51:53;;;;;;;7.57;1.67;;;14.50;1.00;;;;;;7358651;19;21236;-71
2023/10/28 12:54:23;;;;;;;4.78;1.58;;;14.50;1.00;;;;;;7363818;19;20066;-72
2023/10/28 12:56:53;;;;;;;6.38;1.77;;;14.60;1.00;;;;;;7361412;19;20030;-71
2023/10/28 12:59:26;;;;;;;11.68;2.30;;;14.60;1.00;;;;;;7363615;19;20029;-71
2023/10/28 13:01:56;;;;;;;13.88;3.00;;;14.70;1.00;;;;;;7360423;19;20615;-71
2023/10/28 13:04:26;;;;;;;7.40;2.25;;;14.70;1.00;;;;;;7358822;19;20111;-71
2023/10/28 13:06:56;;;;;;;8.20;1.73;;;14.70;1.00;;;;;;7359068;19;20011;-71
2023/10/28 13:09:27;;;;;;;9.85;2.25;;;14.70;1.00;;;;;;7363290;19;20017;-71
2023/10/28 13:11:59;;;;;;;5.55;1.67;;;14.70;1.00;;;;;;7361180;19;22207;-73
2023/10/28 13:14:31;;;;;;;6.97;1.98;;;14.60;1.00;;;;;;7361638;19;20014;-71
2023/10/28 13:17:02;;;;;;;8.25;1.85;;;14.60;1.00;;;;;;7361531;19;20014;-74
2023/10/28 13:19:32;;;;;;;8.02;2.38;;;14.60;1.00;;;;;;7362540;19;20030;-74